createdAt,value
2019-06-27T00:01:41.735Z,1.57
2019-06-27T00:04:11.409Z,2.00
2019-06-27T00:06:42.248Z,1.67
2019-06-27T00:09:13.225Z,2.47
2019-06-27T00:11:42.850Z,1.97
2019-06-27T00:14:12.863Z,2.70
2019-06-27T00:16:42.568Z,2.10
2019-06-27T00:19:12.237Z,2.30
2019-06-27T00:21:41.869Z,1.87
2019-06-27T00:24:11.525Z,2.47
2019-06-27T00:26:56.205Z,2.40
2019-06-27T00:29:13.595Z,2.07
2019-06-27T00:31:43.222Z,2.00
2019-06-27T00:34:13.888Z,1.80
2019-06-27T00:36:43.633Z,2.00
2019-06-27T00:39:15.287Z,1.63
2019-06-27T00:41:44.915Z,1.80
2019-06-27T00:44:14.507Z,2.00
2019-06-27T00:46:44.169Z,1.90
2019-06-27T00:49:13.945Z,2.33
2019-06-27T00:51:45.309Z,1.80
2019-06-27T00:54:15.208Z,2.33
2019-06-27T00:56:44.931Z,2.47
2019-06-27T00:59:14.527Z,2.30
2019-06-27T01:01:57.411Z,1.60
2019-06-27T01:04:27.161Z,1.70
2019-06-27T01:06:56.896Z,2.47
2019-06-27T01:09:26.626Z,2.70
2019-06-27T01:11:56.249Z,2.93
2019-06-27T01:14:28.496Z,2.23
2019-06-27T01:16:58.119Z,2.77
2019-06-27T01:19:27.754Z,2.67
2019-06-27T01:21:58.505Z,2.20
2019-06-27T01:24:28.269Z,2.40
2019-06-27T01:26:59.047Z,2.90
2019-06-27T01:29:31.889Z,3.13
2019-06-27T01:32:04.735Z,2.53
2019-06-27T01:34:35.382Z,2.47
2019-06-27T01:37:07.407Z,2.40
2019-06-27T01:39:37.481Z,2.67
2019-06-27T01:42:08.424Z,3.43
2019-06-27T01:44:49.469Z,3.47
2019-06-27T01:47:23.145Z,2.83
2019-06-27T01:49:52.768Z,3.50
2019-06-27T01:52:24.500Z,2.20
2019-06-27T01:54:54.186Z,3.00
2019-06-27T01:57:23.884Z,3.70
2019-06-27T02:00:00.429Z,3.23
2019-06-27T02:02:30.145Z,4.00
2019-06-27T02:04:59.797Z,3.90
2019-06-27T02:07:29.813Z,3.33
2019-06-27T02:10:00.417Z,3.43
2019-06-27T02:12:30.057Z,3.57
2019-06-27T02:14:59.708Z,3.33
2019-06-27T02:17:29.348Z,3.67
2019-06-27T02:19:59.330Z,3.30
2019-06-27T02:22:29.088Z,3.10
2019-06-27T02:24:58.734Z,5.80
2019-06-27T02:27:42.401Z,3.97
2019-06-27T02:30:13.323Z,3.10
2019-06-27T02:32:43.138Z,4.03
2019-06-27T02:35:12.995Z,3.70
2019-06-27T02:37:42.638Z,4.10
2019-06-27T02:40:13.479Z,3.80
2019-06-27T02:42:46.153Z,3.30
2019-06-27T02:45:16.247Z,3.60
2019-06-27T02:47:46.882Z,2.97
2019-06-27T02:50:16.540Z,3.27
2019-06-27T02:52:46.160Z,3.53
2019-06-27T02:55:15.846Z,3.57
2019-06-27T02:57:45.972Z,3.47
2019-06-27T03:00:16.196Z,4.40
2019-06-27T03:02:45.827Z,4.13
2019-06-27T03:05:16.996Z,4.17
2019-06-27T03:07:46.662Z,3.60
2019-06-27T03:10:18.577Z,3.10
2019-06-27T03:12:48.345Z,4.00
2019-06-27T03:15:19.149Z,4.10
2019-06-27T03:17:48.802Z,3.63
2019-06-27T03:20:18.896Z,3.60
2019-06-27T03:22:48.504Z,4.30
2019-06-27T03:25:18.109Z,3.77
2019-06-27T03:27:50.803Z,3.40
2019-06-27T03:30:21.474Z,4.10
2019-06-27T03:32:54.231Z,3.73
2019-06-27T03:35:24.018Z,3.53
2019-06-27T03:37:54.750Z,4.07
2019-06-27T03:40:24.433Z,3.73
2019-06-27T03:42:54.205Z,4.17
2019-06-27T03:45:23.972Z,4.80
2019-06-27T03:47:53.646Z,3.67
2019-06-27T03:50:30.372Z,3.50
2019-06-27T03:53:02.098Z,4.53
2019-06-27T03:55:31.861Z,3.10
2019-06-27T03:58:02.503Z,3.67
2019-06-27T04:00:34.426Z,3.93
2019-06-27T04:03:05.269Z,3.43
2019-06-27T04:05:35.007Z,4.10
2019-06-27T04:08:04.693Z,3.93
2019-06-27T04:10:34.695Z,4.33
2019-06-27T04:13:05.544Z,3.83
2019-06-27T04:15:35.640Z,4.00
2019-06-27T04:18:05.592Z,3.83
2019-06-27T04:20:35.272Z,3.57
2019-06-27T04:23:05.001Z,4.23
2019-06-27T04:25:34.673Z,4.47
2019-06-27T04:28:05.411Z,5.80
2019-06-27T04:30:35.101Z,4.60
2019-06-27T04:33:04.898Z,3.40
2019-06-27T04:35:35.485Z,3.47
2019-06-27T04:38:05.253Z,7.13
2019-06-27T04:40:35.097Z,3.67
2019-06-27T04:43:06.066Z,3.73
2019-06-27T04:45:36.026Z,3.27
2019-06-27T04:48:05.765Z,3.40
2019-06-27T04:50:35.518Z,3.27
2019-06-27T04:53:08.393Z,3.43
2019-06-27T04:55:40.026Z,3.03
2019-06-27T04:58:09.757Z,2.33
2019-06-27T05:00:52.130Z,3.60
2019-06-27T05:03:21.792Z,2.43
2019-06-27T05:05:51.527Z,3.00
2019-06-27T05:08:21.238Z,2.27
2019-06-27T05:10:50.898Z,2.43
2019-06-27T05:13:20.513Z,3.50
2019-06-27T05:15:50.204Z,3.20
2019-06-27T05:18:21.545Z,2.97
2019-06-27T05:20:51.193Z,3.67
2019-06-27T05:23:36.572Z,2.30
2019-06-27T05:25:57.479Z,2.30
2019-06-27T05:28:27.244Z,2.70
2019-06-27T05:30:57.010Z,2.20
2019-06-27T05:33:26.882Z,3.00
2019-06-27T05:36:04.402Z,2.73
2019-06-27T05:38:34.130Z,2.30
2019-06-27T05:41:03.948Z,2.07
2019-06-27T05:43:33.604Z,3.10
2019-06-27T05:46:03.298Z,3.03
2019-06-27T05:48:32.931Z,2.60
2019-06-27T05:51:02.586Z,2.43
2019-06-27T05:53:32.228Z,2.93
2019-06-27T05:56:01.888Z,2.37
2019-06-27T05:58:31.585Z,2.57
2019-06-27T06:01:01.261Z,3.10
2019-06-27T06:03:31.138Z,2.50
2019-06-27T06:06:00.847Z,2.30
2019-06-27T06:08:31.415Z,2.80
2019-06-27T06:11:01.045Z,2.20
2019-06-27T06:13:30.819Z,2.23
2019-06-27T06:16:01.302Z,2.47
2019-06-27T06:18:32.375Z,2.87
2019-06-27T06:21:02.100Z,3.10
2019-06-27T06:23:31.891Z,3.00
2019-06-27T06:26:01.492Z,4.27
2019-06-27T06:28:31.119Z,4.10
2019-06-27T06:31:01.858Z,4.80
2019-06-27T06:33:31.500Z,3.93
2019-06-27T06:36:01.253Z,4.27
2019-06-27T06:38:30.983Z,4.70
2019-06-27T06:41:00.699Z,4.23
2019-06-27T06:43:31.326Z,4.30
2019-06-27T06:46:00.986Z,5.00
2019-06-27T06:48:31.463Z,4.40
2019-06-27T06:51:01.180Z,4.47
2019-06-27T06:53:30.914Z,5.10
2019-06-27T06:56:00.555Z,4.37
2019-06-27T06:58:30.174Z,4.57
2019-06-27T07:01:02.095Z,4.40
2019-06-27T07:03:31.149Z,4.57
2019-06-27T07:06:00.914Z,3.83
2019-06-27T07:08:30.675Z,3.90
2019-06-27T07:11:00.400Z,3.10
2019-06-27T07:13:30.197Z,2.73
2019-06-27T07:15:59.837Z,2.70
2019-06-27T07:18:29.546Z,3.50
2019-06-27T07:20:59.315Z,2.27
2019-06-27T07:23:30.654Z,3.30
2019-06-27T07:26:00.357Z,2.47
2019-06-27T07:28:30.077Z,2.33
2019-06-27T07:30:59.815Z,2.37
2019-06-27T07:33:29.455Z,3.30
2019-06-27T07:36:00.383Z,3.20
2019-06-27T07:38:31.025Z,2.97
2019-06-27T07:41:00.726Z,2.47
2019-06-27T07:43:30.445Z,2.37
2019-06-27T07:46:00.259Z,2.77
2019-06-27T07:48:30.089Z,2.93
2019-06-27T07:51:00.082Z,3.10
2019-06-27T07:53:29.901Z,2.73
2019-06-27T07:55:59.672Z,2.90
2019-06-27T07:58:29.536Z,2.47
2019-06-27T08:00:59.256Z,3.00
2019-06-27T08:03:28.991Z,3.33
2019-06-27T08:05:58.705Z,2.63
2019-06-27T08:08:28.329Z,2.83
2019-06-27T08:10:57.972Z,1.80
2019-06-27T08:13:27.768Z,2.73
2019-06-27T08:15:57.716Z,2.17
2019-06-27T08:18:28.491Z,2.97
2019-06-27T08:20:58.296Z,3.00
2019-06-27T08:23:40.912Z,2.20
2019-06-27T08:26:00.309Z,2.43
2019-06-27T08:28:30.164Z,2.80
2019-06-27T08:31:00.079Z,2.80
2019-06-27T08:33:29.835Z,2.87
2019-06-27T08:36:00.925Z,2.45
2019-06-27T08:38:30.679Z,3.17
2019-06-27T08:41:01.031Z,2.90
2019-06-27T08:43:31.572Z,4.22
2019-06-27T08:46:01.216Z,2.92
2019-06-27T08:48:30.881Z,2.53
2019-06-27T08:51:01.182Z,2.60
2019-06-27T08:53:31.005Z,3.20
2019-06-27T08:56:00.704Z,3.05
2019-06-27T08:58:30.437Z,3.10
2019-06-27T09:01:00.114Z,2.53
2019-06-27T09:03:29.844Z,2.20
2019-06-27T09:06:05.896Z,2.43
2019-06-27T09:08:35.607Z,3.00
2019-06-27T09:11:05.385Z,2.37
2019-06-27T09:13:35.105Z,2.60
2019-06-27T09:16:04.987Z,2.80
2019-06-27T09:18:37.592Z,2.97
2019-06-27T09:21:07.816Z,2.52
2019-06-27T09:23:37.859Z,3.25
2019-06-27T09:26:08.162Z,2.87
2019-06-27T09:28:38.602Z,3.05
2019-06-27T09:31:12.289Z,2.87
2019-06-27T09:33:42.105Z,2.90
2019-06-27T09:36:12.051Z,3.20
2019-06-27T09:38:42.590Z,2.42
2019-06-27T09:41:12.502Z,2.63
2019-06-27T09:43:42.386Z,2.50
2019-06-27T09:46:12.580Z,2.80
2019-06-27T09:48:42.299Z,2.40
2019-06-27T09:51:11.937Z,2.30
2019-06-27T09:53:42.167Z,2.83
2019-06-27T09:56:11.960Z,2.27
2019-06-27T09:58:41.676Z,3.87
2019-06-27T10:01:11.590Z,2.80
2019-06-27T10:03:41.385Z,2.90
2019-06-27T10:06:11.129Z,3.67
2019-06-27T10:08:40.904Z,3.73
2019-06-27T10:11:11.638Z,3.55
2019-06-27T10:13:41.278Z,3.13
2019-06-27T10:16:11.011Z,3.27
2019-06-27T10:18:40.660Z,3.17
2019-06-27T10:21:10.381Z,3.53
2019-06-27T10:23:40.027Z,3.50
2019-06-27T10:26:11.377Z,3.00
2019-06-27T10:28:41.091Z,3.73
2019-06-27T10:31:10.755Z,3.97
2019-06-27T10:33:40.426Z,2.93
2019-06-27T10:36:10.391Z,3.00
2019-06-27T10:38:40.150Z,3.20
2019-06-27T10:41:09.800Z,3.93
2019-06-27T10:43:39.533Z,2.53
2019-06-27T10:46:10.238Z,2.70
2019-06-27T10:48:40.817Z,2.97
2019-06-27T10:51:10.447Z,2.37
2019-06-27T10:53:40.704Z,2.60
2019-06-27T10:56:14.413Z,2.30
2019-06-27T10:58:44.060Z,2.73
2019-06-27T11:01:13.736Z,2.10
2019-06-27T11:03:43.454Z,2.80
2019-06-27T11:06:13.148Z,2.27
2019-06-27T11:08:42.827Z,1.80
2019-06-27T11:11:12.454Z,2.27
2019-06-27T11:13:54.847Z,2.53
2019-06-27T11:16:13.802Z,2.80
2019-06-27T11:18:43.487Z,2.33
2019-06-27T11:21:14.092Z,2.63
2019-06-27T11:23:43.869Z,3.03
2019-06-27T11:26:16.095Z,3.92
2019-06-27T11:28:45.430Z,3.17
2019-06-27T11:31:15.066Z,1.90
2019-06-27T11:33:45.654Z,2.42
2019-06-27T11:36:16.935Z,2.40
2019-06-27T11:38:46.621Z,2.33
2019-06-27T11:41:16.221Z,2.20
2019-06-27T11:43:46.004Z,2.00
2019-06-27T11:46:15.746Z,2.00
2019-06-27T11:48:46.000Z,1.98
2019-06-27T11:51:15.713Z,2.42
2019-06-27T11:53:46.391Z,2.27
2019-06-27T11:56:16.337Z,1.72
2019-06-27T11:58:46.764Z,2.00
2019-06-27T12:01:16.958Z,2.60
2019-06-27T12:03:49.748Z,3.02
2019-06-27T12:06:18.741Z,2.23
2019-06-27T12:08:49.255Z,2.75
2019-06-27T12:11:19.690Z,2.90
2019-06-27T12:13:49.770Z,2.40
2019-06-27T12:16:19.823Z,2.90
2019-06-27T12:18:49.707Z,2.57
2019-06-27T12:21:19.987Z,2.72
2019-06-27T12:23:54.133Z,2.10
2019-06-27T12:26:24.006Z,3.73
2019-06-27T12:28:53.926Z,2.77
2019-06-27T12:31:24.071Z,2.70
2019-06-27T12:34:06.270Z,2.87
2019-06-27T12:36:26.051Z,3.55
2019-06-27T12:38:57.135Z,3.00
2019-06-27T12:41:27.573Z,2.33
2019-06-27T12:44:07.770Z,2.62
2019-06-27T12:46:37.840Z,3.53
2019-06-27T12:49:08.297Z,2.30
2019-06-27T12:51:38.424Z,2.83
2019-06-27T12:54:13.861Z,1.95
2019-06-27T12:56:44.061Z,2.08
2019-06-27T12:59:14.202Z,2.20
2019-06-27T13:01:47.608Z,2.27
2019-06-27T13:04:23.315Z,2.00
2019-06-27T13:06:49.327Z,1.85
2019-06-27T13:09:19.703Z,2.37
2019-06-27T13:11:51.734Z,2.62
2019-06-27T13:14:27.812Z,2.30
2019-06-27T13:16:57.620Z,2.03
2019-06-27T13:19:44.662Z,2.45
2019-06-27T13:22:14.402Z,2.77
2019-06-27T13:24:44.533Z,2.00
2019-06-27T13:27:14.919Z,2.25
2019-06-27T13:29:45.658Z,2.27
2019-06-27T13:32:15.953Z,2.92
2019-06-27T13:34:46.333Z,2.42
2019-06-27T13:37:16.101Z,2.67
2019-06-27T13:39:46.722Z,2.63
2019-06-27T13:42:16.594Z,2.43
2019-06-27T13:44:46.888Z,3.72
2019-06-27T13:47:20.088Z,2.90
2019-06-27T13:49:48.083Z,2.27
2019-06-27T13:52:19.108Z,2.60
2019-06-27T13:54:49.480Z,2.30
2019-06-27T13:57:19.386Z,2.37
2019-06-27T13:59:49.403Z,2.20
2019-06-27T14:02:20.118Z,2.45
2019-06-27T14:04:57.142Z,2.75
2019-06-27T14:07:22.609Z,2.20
2019-06-27T14:09:57.083Z,2.40
2019-06-27T14:12:24.954Z,3.17
2019-06-27T14:14:59.618Z,1.82
2019-06-27T14:17:26.763Z,2.17
2019-06-27T14:20:18.363Z,2.27
2019-06-27T14:22:48.485Z,2.47
2019-06-27T14:25:18.316Z,2.10
2019-06-27T14:27:48.082Z,2.22
2019-06-27T14:30:19.805Z,1.60
2019-06-27T14:32:53.157Z,2.40
2019-06-27T14:35:21.245Z,1.75
2019-06-27T14:37:51.117Z,2.27
2019-06-27T14:40:22.516Z,2.10
2019-06-27T14:42:53.216Z,2.15
2019-06-27T14:45:25.317Z,2.05
2019-06-27T14:47:56.742Z,1.77
2019-06-27T14:50:27.283Z,1.98
2019-06-27T14:52:57.674Z,2.17
2019-06-27T14:55:28.183Z,2.47
2019-06-27T14:57:58.541Z,2.20
2019-06-27T15:00:28.968Z,2.45
2019-06-27T15:02:58.841Z,2.55
2019-06-27T15:05:32.943Z,2.37
2019-06-27T15:08:01.309Z,2.37
2019-06-27T15:10:31.706Z,2.90
2019-06-27T15:13:02.014Z,2.20
2019-06-27T15:15:33.303Z,2.20
2019-06-27T15:18:03.589Z,2.08
2019-06-27T15:20:33.290Z,2.42
2019-06-27T15:23:03.498Z,2.55
2019-06-27T15:25:34.130Z,2.52
2019-06-27T15:28:04.408Z,2.42
2019-06-27T15:30:34.089Z,2.52
2019-06-27T15:33:03.905Z,2.15
2019-06-27T15:35:50.905Z,2.62
2019-06-27T15:38:05.829Z,2.25
2019-06-27T15:40:35.556Z,2.20
2019-06-27T15:43:05.305Z,2.80
2019-06-27T15:45:35.021Z,2.73
2019-06-27T15:48:04.931Z,2.25
2019-06-27T15:50:35.737Z,2.90
2019-06-27T15:53:06.111Z,2.20
2019-06-27T15:55:36.536Z,2.52
2019-06-27T15:58:07.206Z,2.50
2019-06-27T16:00:39.346Z,2.70
2019-06-27T16:03:08.517Z,2.77
2019-06-27T16:05:38.368Z,2.20
2019-06-27T16:08:08.387Z,2.33
2019-06-27T16:10:38.572Z,2.33
2019-06-27T16:13:08.465Z,2.27
2019-06-27T16:15:38.714Z,2.60
2019-06-27T16:18:09.208Z,2.25
2019-06-27T16:20:39.622Z,2.00
2019-06-27T16:23:09.368Z,2.60
2019-06-27T16:25:39.784Z,2.25
2019-06-27T16:28:10.573Z,1.87
2019-06-27T16:30:40.422Z,2.17
2019-06-27T16:33:10.177Z,1.90
2019-06-27T16:35:40.533Z,2.70
2019-06-27T16:38:11.105Z,2.05
2019-06-27T16:40:40.873Z,2.40
2019-06-27T16:43:12.353Z,2.22
2019-06-27T16:45:42.699Z,2.35
2019-06-27T16:48:13.176Z,2.12
2019-06-27T16:50:43.504Z,1.98
2019-06-27T16:53:14.301Z,2.30
2019-06-27T16:55:46.596Z,2.20
2019-06-27T16:58:16.832Z,2.05
2019-06-27T17:00:46.791Z,1.92
2019-06-27T17:03:16.473Z,1.70
2019-06-27T17:05:47.017Z,1.75
2019-06-27T17:08:16.951Z,2.27
2019-06-27T17:10:47.288Z,2.33
2019-06-27T17:13:17.599Z,2.20
2019-06-27T17:15:47.902Z,1.90
2019-06-27T17:18:17.794Z,1.90
2019-06-27T17:20:47.476Z,2.15
2019-06-27T17:23:17.797Z,1.75
2019-06-27T17:25:47.614Z,1.92
2019-06-27T17:28:17.276Z,1.87
2019-06-27T17:30:47.162Z,1.62
2019-06-27T17:33:17.507Z,2.12
2019-06-27T17:35:47.898Z,1.50
2019-06-27T17:38:18.358Z,1.87
2019-06-27T17:40:48.197Z,1.57
2019-06-27T17:43:18.522Z,1.57
2019-06-27T17:45:48.860Z,1.80
2019-06-27T17:48:18.687Z,1.40
2019-06-27T17:50:48.434Z,2.03
2019-06-27T17:53:18.666Z,2.10
2019-06-27T17:55:48.996Z,1.57
2019-06-27T17:58:18.728Z,1.77
2019-06-27T18:00:49.414Z,2.25
2019-06-27T18:03:19.747Z,1.30
2019-06-27T18:05:50.365Z,1.32
2019-06-27T18:08:20.149Z,1.23
2019-06-27T18:10:49.870Z,1.50
2019-06-27T18:13:19.585Z,2.15
2019-06-27T18:15:49.232Z,1.72
2019-06-27T18:18:19.570Z,1.50
2019-06-27T18:20:49.778Z,2.25
2019-06-27T18:23:19.455Z,2.00
2019-06-27T18:25:49.262Z,2.50
2019-06-27T18:28:19.614Z,1.98
2019-06-27T18:30:49.315Z,2.00
2019-06-27T18:33:19.007Z,1.80
2019-06-27T18:35:48.802Z,2.43
2019-06-27T18:38:19.126Z,1.50
2019-06-27T18:40:49.431Z,1.92
2019-06-27T18:43:19.112Z,1.60
2019-06-27T18:45:48.960Z,1.70
2019-06-27T18:48:18.714Z,1.65
2019-06-27T18:50:49.456Z,1.55
2019-06-27T18:53:19.222Z,2.15
2019-06-27T18:55:49.544Z,1.50
2019-06-27T18:58:19.223Z,2.30
2019-06-27T19:00:49.677Z,2.30
2019-06-27T19:03:20.231Z,1.50
2019-06-27T19:05:54.663Z,2.47
2019-06-27T19:08:54.102Z,2.43
2019-06-27T19:11:24.274Z,1.77
2019-06-27T19:13:58.583Z,2.90
2019-06-27T19:16:31.729Z,2.23
2019-06-27T19:19:11.500Z,1.67
2019-06-27T19:21:42.771Z,1.90
2019-06-27T19:24:15.213Z,1.90
2019-06-27T19:26:46.842Z,7.80
2019-06-27T19:29:16.598Z,12.07
2019-06-27T19:31:46.476Z,11.57
2019-06-27T19:34:16.463Z,8.60
2019-06-27T19:36:46.187Z,10.63
2019-06-27T19:39:16.098Z,8.97
2019-06-27T19:41:46.073Z,8.00
2019-06-27T19:44:15.886Z,1.73
2019-06-27T19:46:45.600Z,1.93
2019-06-27T19:49:15.422Z,2.53
2019-06-27T19:51:45.339Z,2.27
2019-06-27T19:54:15.262Z,1.83
2019-06-27T19:56:45.053Z,1.40
2019-06-27T19:59:14.813Z,1.87
2019-06-27T20:01:44.733Z,4.60
2019-06-27T20:04:14.428Z,8.13
2019-06-27T20:06:44.205Z,5.20
2019-06-27T20:09:13.871Z,1.90
2019-06-27T20:11:43.645Z,1.70
2019-06-27T20:14:13.671Z,1.70
2019-06-27T20:16:43.399Z,1.50
2019-06-27T20:19:13.496Z,1.43
2019-06-27T20:21:43.110Z,1.80
2019-06-27T20:24:12.822Z,1.10
2019-06-27T20:26:42.589Z,1.40
2019-06-27T20:29:12.234Z,2.17
2019-06-27T20:31:41.941Z,1.83
2019-06-27T20:34:11.554Z,1.40
2019-06-27T20:36:41.227Z,1.60
2019-06-27T20:39:10.884Z,2.07
2019-06-27T20:41:40.513Z,1.70
2019-06-27T20:44:10.224Z,1.60
2019-06-27T20:46:39.956Z,2.30
2019-06-27T20:49:09.661Z,2.10
2019-06-27T20:51:39.345Z,1.53
2019-06-27T20:54:12.098Z,1.57
2019-06-27T20:56:40.520Z,2.07
2019-06-27T20:59:10.559Z,2.17
2019-06-27T21:01:40.333Z,2.07
2019-06-27T21:04:09.993Z,2.10
2019-06-27T21:06:39.718Z,1.90
2019-06-27T21:09:09.539Z,1.37
2019-06-27T21:11:39.148Z,2.50
2019-06-27T21:14:09.412Z,2.00
2019-06-27T21:16:39.196Z,1.80
2019-06-27T21:19:08.947Z,1.67
2019-06-27T21:21:38.655Z,1.70
2019-06-27T21:24:08.418Z,1.80
2019-06-27T21:26:38.678Z,2.00
2019-06-27T21:29:08.447Z,1.47
2019-06-27T21:31:38.177Z,1.77
2019-06-27T21:34:07.886Z,2.53
2019-06-27T21:36:37.654Z,3.37
2019-06-27T21:39:08.217Z,2.67
2019-06-27T21:41:37.986Z,3.00
2019-06-27T21:44:07.786Z,3.10
2019-06-27T21:46:37.507Z,3.20
2019-06-27T21:49:11.228Z,3.10
2019-06-27T21:51:39.328Z,2.97
2019-06-27T21:54:09.043Z,3.20
2019-06-27T21:56:38.785Z,3.90
2019-06-27T21:59:08.461Z,3.67
2019-06-27T22:01:38.368Z,3.27
2019-06-27T22:04:08.176Z,3.53
2019-06-27T22:06:37.844Z,4.13
2019-06-27T22:09:23.439Z,3.17
2019-06-27T22:11:40.327Z,4.63
2019-06-27T22:14:10.879Z,3.33
2019-06-27T22:16:40.657Z,3.47
2019-06-27T22:19:10.442Z,3.83
2019-06-27T22:21:40.209Z,3.50
2019-06-27T22:24:09.863Z,3.10
2019-06-27T22:26:39.669Z,3.27
2019-06-27T22:29:09.360Z,4.20
2019-06-27T22:31:39.083Z,3.87
2019-06-27T22:34:08.870Z,3.70
2019-06-27T22:36:38.791Z,3.90
2019-06-27T22:39:39.602Z,4.27
2019-06-27T22:42:15.375Z,4.07
2019-06-27T22:45:02.935Z,4.27
2019-06-27T22:47:50.641Z,3.43
2019-06-27T22:50:35.956Z,3.50
2019-06-27T22:53:07.581Z,3.43
2019-06-27T22:55:37.479Z,3.50
2019-06-27T22:58:07.375Z,3.90
2019-06-27T23:00:38.304Z,4.10
2019-06-27T23:03:08.115Z,3.53
2019-06-27T23:05:38.004Z,3.53
2019-06-27T23:08:07.939Z,3.10
2019-06-27T23:10:37.780Z,3.63
2019-06-27T23:13:07.582Z,3.80
2019-06-27T23:15:38.004Z,2.97
2019-06-27T23:18:07.674Z,3.87
2019-06-27T23:20:37.489Z,2.83
2019-06-27T23:23:07.090Z,3.87
2019-06-27T23:25:37.402Z,3.37
2019-06-27T23:28:07.473Z,3.93
2019-06-27T23:30:37.251Z,3.47
2019-06-27T23:33:06.919Z,3.30
2019-06-27T23:35:36.756Z,3.13
2019-06-27T23:38:06.577Z,3.30
2019-06-27T23:40:36.300Z,2.77
2019-06-27T23:43:06.099Z,3.27
2019-06-27T23:45:35.708Z,3.77
2019-06-27T23:48:05.581Z,3.57
2019-06-27T23:50:35.349Z,3.53
2019-06-27T23:53:05.210Z,3.40
2019-06-27T23:55:34.915Z,3.13
2019-06-27T23:58:04.760Z,3.20
